Time;durP1;ratioP1;P1;durP2;ratioP2;P2;SDS_P1;SDS_P2;PMS_P1;PMS_P2;Temp;Humidity;BMP_temperature;BMP_pressure;BME280_temperature;BME280_humidity;BME280_pressure;Samples;Min_cycle;Max_cycle;Signal;HPM_P1;HPM_P2
2023/01/21 00:02:21;;;;;;;0.10;0.10;;;;;;;0.98;71.51;102784.69;5024647;28;20034;-81
2023/01/21 00:04:48;;;;;;;0.40;0.40;;;;;;;0.96;71.21;102800.28;5021078;28;20060;-80
2023/01/21 00:07:14;;;;;;;0.20;0.20;;;;;;;0.94;71.28;102797.56;5023357;28;20049;-80
2023/01/21 00:09:40;;;;;;;0.17;0.17;;;;;;;0.93;71.63;102803.59;5031020;28;20497;-80
2023/01/21 00:12:06;;;;;;;0.10;0.10;;;;;;;0.92;71.27;102806.16;5023007;28;20034;-80
2023/01/21 00:14:32;;;;;;;0.30;0.30;;;;;;;0.91;71.37;102802.66;5022470;28;20033;-80
2023/01/21 00:16:58;;;;;;;0.30;0.30;;;;;;;0.92;71.33;102806.16;5019276;28;20048;-80
2023/01/21 00:19:25;;;;;;;1.00;1.00;;;;;;;0.89;70.97;102809.50;5020099;28;20501;-80
2023/01/21 00:21:51;;;;;;;0.10;0.10;;;;;;;0.89;71.52;102811.22;5020676;28;20505;-80
2023/01/21 00:24:17;;;;;;;0.20;0.20;;;;;;;0.88;71.41;102812.91;5021479;28;20032;-80
2023/01/21 00:26:43;;;;;;;0.20;0.20;;;;;;;0.87;71.43;102811.13;5020928;28;20031;-80
2023/01/21 00:29:10;;;;;;;0.10;0.10;;;;;;;0.86;71.28;102817.19;5015973;28;20050;-80
2023/01/21 00:31:36;;;;;;;0.50;0.50;;;;;;;0.85;71.37;102814.47;5025592;28;20056;-80
2023/01/21 00:34:02;;;;;;;0.20;0.20;;;;;;;0.85;71.24;102820.59;5034415;28;20108;-80
2023/01/21 00:36:29;;;;;;;0.15;0.15;;;;;;;0.84;71.21;102818.81;5024986;28;20039;-80
2023/01/21 00:38:56;;;;;;;0.52;0.52;;;;;;;0.86;71.12;102827.63;5021471;28;20068;-80
2023/01/21 00:41:23;;;;;;;0.20;0.20;;;;;;;0.85;71.52;102835.34;5019165;28;20022;-80
2023/01/21 00:43:49;;;;;;;0.20;0.20;;;;;;;0.84;71.53;102834.47;5022942;28;20034;-80
2023/01/21 00:46:15;;;;;;;0.15;0.15;;;;;;;0.84;71.24;102834.47;5017670;28;20033;-80
2023/01/21 00:48:42;;;;;;;0.17;0.17;;;;;;;0.83;71.05;102842.22;5019779;28;20497;-80
2023/01/21 00:51:08;;;;;;;0.20;0.20;;;;;;;0.81;71.29;102844.75;5018936;28;20389;-79
2023/01/21 00:53:37;;;;;;;0.15;0.15;;;;;;;0.82;71.20;102841.31;5023354;28;20044;-80
2023/01/21 00:56:06;;;;;;;0.20;0.20;;;;;;;0.80;71.55;102845.56;5025209;22;20045;-80
2023/01/21 00:58:32;;;;;;;0.20;0.20;;;;;;;0.77;71.71;102848.91;4997368;28;20037;-80
2023/01/21 01:01:01;;;;;;;1.15;1.15;;;;;;;0.81;71.39;102849.97;5009251;28;20108;-80
2023/01/21 01:03:27;;;;;;;1.25;1.10;;;;;;;0.81;71.19;102852.59;5005094;28;20036;-80
2023/01/21 01:05:53;;;;;;;0.95;0.95;;;;;;;0.80;71.46;102846.44;5000726;28;20099;-80
2023/01/21 01:08:20;;;;;;;0.20;0.20;;;;;;;0.78;71.51;102852.41;5005520;28;20053;-80
2023/01/21 01:10:46;;;;;;;0.20;0.20;;;;;;;0.78;71.30;102866.34;4989129;28;20026;-80
2023/01/21 01:13:12;;;;;;;0.20;0.20;;;;;;;0.78;71.35;102865.44;4996229;28;21294;-80
2023/01/21 01:15:38;;;;;;;0.20;0.20;;;;;;;0.77;71.31;102875.00;4987923;28;20026;-80
2023/01/21 01:18:04;;;;;;;0.10;0.10;;;;;;;0.76;71.47;102875.81;4999951;28;20030;-80
2023/01/21 01:20:30;;;;;;;0.10;0.10;;;;;;;0.76;71.40;102885.34;4999042;28;20572;-79
2023/01/21 01:22:56;;;;;;;0.32;0.32;;;;;;;0.76;71.29;102898.38;4990849;28;20030;-80
2023/01/21 01:25:22;;;;;;;0.20;0.20;;;;;;;0.74;71.53;102892.22;4987027;28;20050;-80
2023/01/21 01:27:48;;;;;;;0.20;0.20;;;;;;;0.71;71.82;102895.56;4986760;28;20376;-80
2023/01/21 01:30:14;;;;;;;0.52;0.52;;;;;;;0.69;71.70;102897.16;4986083;28;20031;-80
2023/01/21 01:32:40;;;;;;;0.43;0.43;;;;;;;0.66;71.66;102885.66;4986744;28;20034;-80
2023/01/21 01:35:07;;;;;;;0.30;0.30;;;;;;;0.66;71.53;102897.03;4987211;28;20041;-80
2023/01/21 01:37:33;;;;;;;0.43;0.43;;;;;;;0.68;71.22;102899.72;4986178;28;20405;-80
2023/01/21 01:39:59;;;;;;;2.10;0.82;;;;;;;0.67;70.82;102900.53;4986669;28;20141;-80
2023/01/21 01:42:26;;;;;;;0.10;0.10;;;;;;;0.66;71.06;102910.06;4988596;28;20061;-80
2023/01/21 01:47:38;;;;;;;0.10;0.10;;;;;;;0.67;71.41;102913.56;5071663;28;20423;-80
2023/01/21 01:50:10;;;;;;;0.20;0.20;;;;;;;0.66;71.15;102911.75;5051798;28;20041;-80
2023/01/21 01:52:36;;;;;;;0.20;0.20;;;;;;;0.63;70.96;102908.16;5051579;28;20092;-79
2023/01/21 01:55:04;;;;;;;0.10;0.10;;;;;;;0.63;71.49;102907.28;5050630;28;20420;-79
2023/01/21 01:57:36;;;;;;;0.10;0.10;;;;;;;0.61;71.20;102902.00;5050676;28;20029;-80
2023/01/21 02:00:10;;;;;;;1.00;0.85;;;;;;;0.61;71.14;102915.03;5050041;28;20025;-79
2023/01/21 02:02:38;;;;;;;0.10;0.10;;;;;;;0.57;71.41;102927.81;5051250;28;20029;-79
2023/01/21 02:05:07;;;;;;;0.20;0.20;;;;;;;0.55;71.33;102925.13;5051538;28;20029;-79
2023/01/21 02:07:38;;;;;;;0.10;0.10;;;;;;;0.55;71.17;102932.03;5053641;28;20037;-79
2023/01/21 02:10:07;;;;;;;0.20;0.20;;;;;;;0.52;70.83;102940.59;5062929;28;20036;-79
2023/01/21 02:12:35;;;;;;;0.20;0.20;;;;;;;0.50;71.31;102946.53;5055507;28;20114;-79
2023/01/21 02:15:01;;;;;;;0.20;0.20;;;;;;;0.48;71.11;102943.84;5045858;28;20112;-80
2023/01/21 02:17:54;;;;;;;0.20;0.20;;;;;;;0.53;70.89;102947.59;5041594;28;20022;-79
2023/01/21 02:26:35;;;;;;;0.20;0.20;;;;;;;0.48;70.76;102964.72;5143703;27;21404;-80
2023/01/21 02:29:19;;;;;;;0.10;0.10;;;;;;;0.42;71.21;102966.97;5125328;27;20066;-80
2023/01/21 02:32:03;;;;;;;0.20;0.20;;;;;;;0.41;71.06;102973.00;5124667;27;20027;-80
2023/01/21 02:34:58;;;;;;;0.20;0.20;;;;;;;0.38;71.17;102978.06;5123674;27;20428;-80
2023/01/21 02:37:36;;;;;;;0.20;0.20;;;;;;;0.34;70.91;102986.50;5128824;27;20035;-80
2023/01/21 02:43:26;;;;;;;0.10;0.10;;;;;;;0.30;71.12;102994.16;5094188;27;1187511;-80
2023/01/21 02:46:12;;;;;;;0.20;0.20;;;;;;;0.29;70.76;103000.19;5104638;28;20278;-80
2023/01/21 02:48:47;;;;;;;0.10;0.10;;;;;;;0.28;70.67;103005.31;5096934;28;20040;-79
2023/01/21 02:51:13;;;;;;;0.20;0.20;;;;;;;0.25;70.86;103012.97;5111500;28;20552;-80
2023/01/21 02:53:39;;;;;;;0.20;0.20;;;;;;;0.22;71.23;103024.09;5111908;28;20035;-79
2023/01/21 02:56:12;;;;;;;0.20;0.20;;;;;;;0.26;71.60;103020.88;5111849;28;20096;-80
2023/01/21 02:58:43;;;;;;;0.20;0.20;;;;;;;0.25;71.32;103019.09;5110362;28;20024;-79
2023/01/21 03:01:40;;;;;;;0.20;0.20;;;;;;;0.31;71.54;103029.88;5111587;28;20024;-79
2023/01/21 03:04:34;;;;;;;0.10;0.10;;;;;;;0.32;71.56;103036.88;5107280;28;20035;-80
2023/01/21 03:09:40;;;;;;;0.20;0.20;;;;;;;0.28;71.60;103045.31;5132231;27;20765;-80
2023/01/21 03:21:02;;;;;;;0.10;0.10;;;;;;;0.34;71.52;103036.06;5043925;28;20418;-82
2023/01/21 03:23:36;;;;;;;7.38;1.58;;;;;;;0.29;71.37;103036.69;5032230;28;20056;-81
2023/01/21 03:26:04;;;;;;;0.20;0.20;;;;;;;0.26;71.33;103036.53;5029332;28;20408;-81
2023/01/21 03:28:35;;;;;;;0.10;0.10;;;;;;;0.26;71.34;103033.94;5034186;28;20029;-81
2023/01/21 03:31:07;;;;;;;0.10;0.10;;;;;;;0.26;71.47;103041.75;5033132;28;20083;-81
2023/01/21 03:33:38;;;;;;;0.20;0.20;;;;;;;0.26;71.54;103041.75;5031933;28;20092;-81
2023/01/21 03:36:13;;;;;;;0.20;0.20;;;;;;;0.26;71.70;103049.56;5033400;28;20649;-82
2023/01/21 03:38:46;;;;;;;0.40;0.40;;;;;;;0.23;71.49;103044.16;5030286;28;20036;-82
2023/01/21 03:41:18;;;;;;;0.13;0.13;;;;;;;0.23;71.49;103040.66;5030208;28;20041;-82
2023/01/21 03:43:45;;;;;;;0.20;0.20;;;;;;;0.20;71.44;103051.81;5032707;28;20380;-83
2023/01/21 03:46:40;;;;;;;0.68;0.68;;;;;;;0.23;71.43;103045.88;5029495;28;20030;-82
2023/01/21 03:49:32;;;;;;;0.20;0.20;;;;;;;0.21;70.90;103052.72;5026540;28;20024;-82
2023/01/21 03:52:00;;;;;;;0.20;0.20;;;;;;;0.10;71.61;103059.88;5026855;28;20029;-81
2023/01/21 03:54:27;;;;;;;0.20;0.20;;;;;;;0.07;71.05;103065.81;5025770;28;20033;-82
2023/01/21 03:56:53;;;;;;;0.20;0.20;;;;;;;0.06;70.90;103068.34;5028225;28;20041;-82
2023/01/21 03:59:19;;;;;;;0.20;0.20;;;;;;;0.06;71.43;103073.56;5028456;28;20026;-82
2023/01/21 04:01:45;;;;;;;0.20;0.20;;;;;;;0.05;71.72;103074.38;5031557;28;20491;-83
2023/01/21 04:04:11;;;;;;;0.17;0.17;;;;;;;0.05;71.23;103082.19;5024047;28;20044;-82
2023/01/21 04:06:37;;;;;;;0.20;0.20;;;;;;;0.04;71.92;103075.16;5028084;28;20026;-82
2023/01/21 04:09:05;;;;;;;0.82;0.82;;;;;;;0.03;71.37;103082.09;5026409;28;20137;-82
2023/01/21 04:11:31;;;;;;;0.35;0.35;;;;;;;0.04;71.04;103085.59;5027062;28;20464;-82
2023/01/21 04:13:58;;;;;;;0.20;0.20;;;;;;;0.01;71.76;103085.44;5026681;28;20041;-83
2023/01/21 04:16:24;;;;;;;0.10;0.10;;;;;;;0.00;71.77;103081.94;5029604;28;20040;-82
2023/01/21 04:18:50;;;;;;;0.10;0.10;;;;;;;-0.01;71.25;103083.63;5030140;28;20102;-82
2023/01/21 04:21:16;;;;;;;0.20;0.20;;;;;;;-0.03;71.14;103090.44;5039096;28;20121;-82
2023/01/21 04:23:42;;;;;;;0.20;0.20;;;;;;;-0.05;71.29;103086.88;5055439;28;20052;-80
2023/01/21 04:26:08;;;;;;;0.15;0.15;;;;;;;-0.05;71.62;103089.47;5038849;28;20071;-80
2023/01/21 04:28:34;;;;;;;0.45;0.45;;;;;;;-0.04;71.87;103087.75;5031450;28;20037;-83
2023/01/21 04:31:01;;;;;;;0.20;0.20;;;;;;;-0.04;71.83;103093.88;5029056;28;20117;-83
2023/01/21 04:33:27;;;;;;;0.20;0.20;;;;;;;-0.02;71.44;103091.34;5018936;28;20033;-82
2023/01/21 04:35:58;;;;;;;0.20;0.20;;;;;;;-0.02;71.68;103092.25;5020491;28;20030;-82
2023/01/21 04:38:24;;;;;;;0.20;0.20;;;;;;;-0.04;71.51;103082.53;5020362;28;20044;-82
2023/01/21 04:40:50;;;;;;;0.20;0.20;;;;;;;-0.04;71.15;103085.16;5019099;28;20028;-80
2023/01/21 04:43:16;;;;;;;0.20;0.20;;;;;;;-0.06;71.59;103077.25;5018190;28;20045;-81
2023/01/21 04:45:43;;;;;;;0.13;0.13;;;;;;;-0.10;71.15;103088.31;5019922;28;20038;-82
2023/01/21 04:48:09;;;;;;;0.10;0.10;;;;;;;-0.12;71.71;103076.88;5020531;28;20030;-83
2023/01/21 04:50:35;;;;;;;0.10;0.10;;;;;;;-0.13;71.40;103082.00;5017258;28;20064;-80
2023/01/21 04:53:01;;;;;;;0.20;0.20;;;;;;;-0.16;71.70;103082.72;5021696;28;20478;-84
2023/01/21 04:55:27;;;;;;;0.30;0.30;;;;;;;-0.18;71.00;103089.53;5021348;28;20038;-83
2023/01/21 04:57:53;;;;;;;0.10;0.10;;;;;;;-0.20;71.50;103091.13;5020316;28;20041;-81
2023/01/21 05:00:19;;;;;;;0.20;0.20;;;;;;;-0.21;71.29;103089.34;5017455;28;20025;-83
2023/01/21 05:02:45;;;;;;;0.20;0.20;;;;;;;-0.22;71.52;103091.03;5023877;28;20041;-81
2023/01/21 05:05:12;;;;;;;0.20;0.20;;;;;;;-0.23;71.62;103091.84;5017282;28;20034;-81
2023/01/21 05:07:38;;;;;;;0.20;0.20;;;;;;;-0.22;72.04;103097.97;5015220;28;20045;-82
2023/01/21 05:10:04;;;;;;;0.85;0.85;;;;;;;-0.24;71.64;103099.59;5013661;28;20076;-81
2023/01/21 05:12:30;;;;;;;0.20;0.20;;;;;;;-0.27;71.94;103109.81;5017270;28;20061;-82
2023/01/21 05:14:57;;;;;;;0.32;0.32;;;;;;;-0.27;72.00;103113.31;5014691;28;20035;-83
2023/01/21 05:17:23;;;;;;;0.10;0.10;;;;;;;-0.26;71.79;103112.53;5015853;28;20568;-83
2023/01/21 05:19:50;;;;;;;0.20;0.20;;;;;;;-0.26;71.39;103111.59;5015267;28;20033;-82
2023/01/21 05:22:16;;;;;;;0.20;0.20;;;;;;;-0.26;71.27;103116.81;5015726;28;20129;-82
2023/01/21 05:24:43;;;;;;;0.20;0.20;;;;;;;-0.28;71.34;103119.34;5017761;28;20149;-82
2023/01/21 05:27:09;;;;;;;0.10;0.10;;;;;;;-0.29;71.97;103121.84;5016305;28;20104;-84
2023/01/21 05:29:35;;;;;;;0.28;0.28;;;;;;;-0.30;71.88;103120.03;5007023;28;20049;-83
2023/01/21 05:32:01;;;;;;;0.20;0.20;;;;;;;-0.30;72.00;103120.03;5014261;28;20030;-82
2023/01/21 05:34:27;;;;;;;0.13;0.13;;;;;;;-0.29;71.70;103121.84;5013189;28;20533;-82
2023/01/21 05:36:53;;;;;;;0.10;0.10;;;;;;;-0.28;72.01;103128.88;5022132;28;20037;-83
2023/01/21 05:39:19;;;;;;;0.10;0.10;;;;;;;-0.28;71.50;103128.88;5013254;28;20365;-82
2023/01/21 05:41:45;;;;;;;0.20;0.20;;;;;;;-0.29;72.18;103132.28;5015109;28;20045;-83
2023/01/21 05:44:11;;;;;;;0.20;0.20;;;;;;;-0.26;71.91;103141.19;5010457;28;20037;-82
2023/01/21 05:46:37;;;;;;;0.10;0.10;;;;;;;-0.23;72.03;103140.47;5012484;28;20049;-82
2023/01/21 05:49:03;;;;;;;0.20;0.20;;;;;;;-0.21;71.90;103136.25;5012243;28;20136;-83
2023/01/21 05:51:29;;;;;;;1.85;1.75;;;;;;;-0.21;72.28;103152.78;5014702;28;20667;-83
2023/01/21 05:53:56;;;;;;;0.20;0.20;;;;;;;-0.20;72.44;103148.44;5011588;28;20105;-83
2023/01/21 05:56:22;;;;;;;0.20;0.20;;;;;;;-0.18;72.07;103162.50;5012681;28;20069;-81
2023/01/21 05:58:48;;;;;;;1.67;1.20;;;;;;;-0.18;72.20;103162.50;5012081;28;20075;-82
2023/01/21 06:01:14;;;;;;;0.15;0.15;;;;;;;-0.17;71.93;103165.19;5010162;28;20715;-81
2023/01/21 06:03:40;;;;;;;0.20;0.20;;;;;;;-0.16;72.27;103171.31;5012258;28;20034;-82
2023/01/21 06:06:06;;;;;;;0.50;0.50;;;;;;;-0.13;72.68;103174.09;5011248;28;20026;-82
2023/01/21 06:08:32;;;;;;;0.25;0.25;;;;;;;-0.11;71.82;103177.69;5012234;28;20033;-82
2023/01/21 06:10:58;;;;;;;1.25;0.95;;;;;;;-0.13;72.45;103171.47;5004674;28;20030;-81
2023/01/21 06:13:25;;;;;;;0.20;0.20;;;;;;;-0.10;72.50;103182.13;5007910;28;20133;-81
2023/01/21 06:15:55;;;;;;;0.20;0.20;;;;;;;-0.08;72.12;103175.25;5010446;28;20057;-82
2023/01/21 06:18:21;;;;;;;0.20;0.20;;;;;;;-0.08;72.83;103185.69;5009890;28;20053;-84
2023/01/21 06:20:47;;;;;;;0.17;0.17;;;;;;;-0.07;72.62;103191.81;5020268;28;20025;-83
2023/01/21 06:23:14;;;;;;;0.10;0.10;;;;;;;-0.07;72.06;103199.63;5017351;28;20037;-83
2023/01/21 06:25:42;;;;;;;0.20;0.20;;;;;;;-0.08;72.86;103201.31;5021662;28;20029;-84
2023/01/21 06:28:10;;;;;;;0.20;0.20;;;;;;;-0.07;73.01;103200.53;5013811;28;20065;-85
2023/01/21 06:30:36;;;;;;;0.20;0.20;;;;;;;-0.04;72.85;103210.25;5009981;28;20078;-84
2023/01/21 06:33:03;;;;;;;0.20;0.20;;;;;;;-0.03;72.63;103210.31;5018499;28;20113;-83
2023/01/21 06:35:29;;;;;;;0.10;0.10;;;;;;;-0.03;72.74;103209.44;5011855;28;20034;-83
2023/01/21 06:37:55;;;;;;;0.10;0.10;;;;;;;-0.05;72.84;103211.97;5016247;28;20499;-85
2023/01/21 06:40:21;;;;;;;0.25;0.25;;;;;;;-0.04;72.22;103216.38;5011677;28;20045;-85
2023/01/21 06:42:48;;;;;;;0.30;0.30;;;;;;;-0.05;72.75;103221.47;5012330;28;20045;-85
2023/01/21 06:45:15;;;;;;;0.22;0.22;;;;;;;-0.07;72.16;103223.09;5018136;28;20771;-85
2023/01/21 06:47:43;;;;;;;0.35;0.35;;;;;;;-0.10;72.13;103223.81;5012658;28;20034;-83
2023/01/21 06:50:12;;;;;;;0.13;0.13;;;;;;;-0.09;72.12;103230.78;5010172;28;20061;-83
2023/01/21 06:52:44;;;;;;;0.20;0.20;;;;;;;-0.09;72.74;103229.91;5022468;28;20081;-84
2023/01/21 06:55:11;;;;;;;0.20;0.20;;;;;;;-0.10;72.26;103234.22;5028386;28;20038;-85
2023/01/21 06:57:38;;;;;;;0.20;0.20;;;;;;;-0.13;72.26;103244.44;5023277;28;20641;-86
2023/01/21 07:00:05;;;;;;;0.10;0.10;;;;;;;-0.13;72.62;103243.56;5021364;28;20043;-84
2023/01/21 07:02:32;;;;;;;0.10;0.10;;;;;;;-0.14;71.99;103245.25;5018522;28;20199;-85
2023/01/21 07:04:58;;;;;;;0.10;0.10;;;;;;;-0.15;72.01;103251.25;5020210;28;20030;-84
2023/01/21 07:07:24;;;;;;;0.10;0.10;;;;;;;-0.17;71.69;103256.38;5019839;28;20025;-84
2023/01/21 07:09:50;;;;;;;0.25;0.25;;;;;;;-0.22;72.02;103256.91;5017347;28;20039;-84
2023/01/21 07:12:16;;;;;;;0.28;0.28;;;;;;;-0.23;71.31;103261.19;5015500;28;20065;-86
2023/01/21 07:14:42;;;;;;;0.22;0.22;;;;;;;-0.25;72.21;103261.91;5018221;28;20021;-84
2023/01/21 07:17:08;;;;;;;0.32;0.32;;;;;;;-0.26;71.87;103265.31;5022198;28;20033;-85
2023/01/21 07:19:34;;;;;;;0.15;0.15;;;;;;;-0.27;72.37;103266.16;5016658;28;20017;-85
2023/01/21 07:22:00;;;;;;;0.32;0.32;;;;;;;-0.27;72.01;103268.75;5023042;28;20085;-86
2023/01/21 07:24:27;;;;;;;0.43;0.43;;;;;;;-0.28;71.44;103272.16;5029878;28;20036;-85
2023/01/21 07:26:53;;;;;;;0.20;0.20;;;;;;;-0.31;72.03;103270.25;5021050;28;20041;-84
2023/01/21 07:29:19;;;;;;;0.13;0.13;;;;;;;-0.29;72.53;103272.94;5014800;28;20111;-85
2023/01/21 07:31:45;;;;;;;0.10;0.10;;;;;;;-0.28;72.01;103277.38;5016941;28;20069;-85
2023/01/21 07:34:11;;;;;;;1.02;0.85;;;;;;;-0.27;72.84;103276.56;5016631;28;20022;-85
2023/01/21 07:36:37;;;;;;;1.08;1.08;;;;;;;-0.25;72.24;103281.06;5017752;28;20041;-85
2023/01/21 07:39:03;;;;;;;2.25;2.15;;;;;;;-0.24;72.36;103276.75;5016977;28;20038;-85
2023/01/21 07:41:29;;;;;;;0.20;0.20;;;;;;;-0.23;72.07;103283.75;5011347;28;20037;-86
2023/01/21 07:43:55;;;;;;;0.80;0.80;;;;;;;-0.25;71.62;103283.69;5008694;28;20030;-86
2023/01/21 07:46:23;;;;;;;0.10;0.10;;;;;;;-0.25;71.30;103285.34;5011211;28;20041;-86
2023/01/21 07:48:50;;;;;;;0.20;0.20;;;;;;;-0.27;71.32;103298.28;5009487;28;20054;-86
2023/01/21 07:51:19;;;;;;;0.40;0.40;;;;;;;-0.28;72.18;103295.59;5011688;28;20052;-87
2023/01/21 07:53:45;;;;;;;0.20;0.20;;;;;;;-0.27;71.47;103297.41;5008224;28;20042;-87
2023/01/21 07:56:12;;;;;;;0.32;0.32;;;;;;;-0.25;71.81;103306.19;5010444;28;20445;-85
2023/01/21 07:58:38;;;;;;;0.20;0.20;;;;;;;-0.24;71.75;103308.00;5008854;28;20041;-87
2023/01/21 08:01:07;;;;;;;0.30;0.30;;;;;;;-0.23;71.97;103312.44;5013213;28;20030;-86
2023/01/21 08:03:35;;;;;;;0.20;0.20;;;;;;;-0.19;71.99;103319.63;5008018;28;20032;-85
2023/01/21 08:06:01;;;;;;;0.20;0.20;;;;;;;-0.19;72.01;103323.16;5013758;28;20037;-85
2023/01/21 08:08:27;;;;;;;0.57;0.57;;;;;;;-0.18;72.24;103332.75;5018621;28;20030;-85
2023/01/21 08:10:54;;;;;;;0.20;0.20;;;;;;;-0.14;72.72;103332.97;5025417;28;20030;-85
2023/01/21 08:13:21;;;;;;;0.10;0.10;;;;;;;-0.13;72.72;103332.16;5039953;28;20037;-86
2023/01/21 08:15:56;;;;;;;0.40;0.40;;;;;;;-0.05;72.83;103331.84;5036229;28;20089;-86
2023/01/21 08:18:23;;;;;;;0.10;0.10;;;;;;;-0.07;72.78;103336.06;5030980;28;20077;-87
2023/01/21 08:20:58;;;;;;;0.20;0.20;;;;;;;0.00;72.00;103332.16;5033536;28;20040;-87
2023/01/21 08:23:30;;;;;;;0.13;0.13;;;;;;;0.03;72.67;103341.88;5030273;28;20033;-84
2023/01/21 08:26:00;;;;;;;0.20;0.20;;;;;;;0.01;72.68;103340.84;5031341;28;20034;-85
2023/01/21 08:28:26;;;;;;;0.10;0.10;;;;;;;0.03;71.93;103349.69;5035569;28;20048;-85
2023/01/21 08:30:53;;;;;;;0.20;0.20;;;;;;;0.04;72.32;103356.69;5028671;28;20060;-86
2023/01/21 08:33:19;;;;;;;0.43;0.43;;;;;;;0.06;71.95;103360.28;5017256;28;20061;-85
2023/01/21 08:35:45;;;;;;;0.13;0.13;;;;;;;0.07;72.11;103354.28;5007278;28;20243;-85
2023/01/21 08:38:11;;;;;;;0.20;0.20;;;;;;;0.07;71.93;103363.00;5010897;28;20030;-85
2023/01/21 08:40:37;;;;;;;0.10;0.10;;;;;;;0.09;72.13;103366.59;5012943;28;20504;-85
2023/01/21 08:43:06;;;;;;;0.20;0.20;;;;;;;0.14;71.85;103367.81;5007921;28;20052;-85
2023/01/21 08:45:32;;;;;;;0.10;0.10;;;;;;;0.19;72.42;103372.41;5013055;28;20025;-84
2023/01/21 08:48:02;;;;;;;0.20;0.20;;;;;;;0.26;72.66;103375.50;5018673;28;20041;-84
2023/01/21 08:50:28;;;;;;;0.20;0.20;;;;;;;0.28;72.42;103373.88;5016108;28;20021;-84
2023/01/21 08:52:55;;;;;;;0.20;0.20;;;;;;;0.36;72.40;103378.69;5008748;28;20085;-84
2023/01/21 08:55:25;;;;;;;0.20;0.20;;;;;;;0.43;72.08;103378.28;5010374;28;20036;-84
2023/01/21 08:57:53;;;;;;;0.20;0.20;;;;;;;0.53;72.19;103391.06;5014677;28;20044;-84
2023/01/21 09:00:21;;;;;;;0.20;0.20;;;;;;;0.59;72.35;103387.97;5010053;28;20030;-84
2023/01/21 09:02:47;;;;;;;0.20;0.20;;;;;;;0.65;72.09;103388.34;5007964;28;20133;-85
2023/01/21 09:05:13;;;;;;;0.20;0.20;;;;;;;0.72;72.19;103406.16;5005144;28;20029;-86
2023/01/21 09:07:39;;;;;;;0.10;0.10;;;;;;;0.78;72.11;103403.03;5011317;28;20471;-84
2023/01/21 09:10:07;;;;;;;0.10;0.10;;;;;;;0.85;72.49;103399.09;5009459;28;20037;-84
2023/01/21 09:12:33;;;;;;;0.20;0.20;;;;;;;0.87;72.20;103400.97;5011434;28;20041;-83
2023/01/21 09:14:59;;;;;;;0.20;0.20;;;;;;;0.88;72.06;103402.78;5002253;28;20040;-82
2023/01/21 09:17:27;;;;;;;0.20;0.20;;;;;;;0.93;72.18;103395.25;5018734;28;20070;-84
2023/01/21 09:19:53;;;;;;;0.20;0.20;;;;;;;0.97;72.26;103410.28;5029392;28;20022;-84
2023/01/21 09:22:19;;;;;;;0.20;0.20;;;;;;;0.98;72.21;103411.19;5024838;28;20033;-84
2023/01/21 09:24:45;;;;;;;0.20;0.20;;;;;;;0.99;72.16;103418.22;5010791;28;20108;-84
2023/01/21 09:27:12;;;;;;;0.30;0.30;;;;;;;1.03;72.15;103417.59;5012310;28;20403;-83
2023/01/21 09:29:38;;;;;;;0.20;0.20;;;;;;;1.08;72.28;103413.56;5012887;28;20458;-83
2023/01/21 09:32:04;;;;;;;0.50;0.50;;;;;;;1.15;72.37;103420.97;5018911;28;20057;-85
2023/01/21 09:34:30;;;;;;;0.25;0.25;;;;;;;1.22;72.59;103427.44;5017440;28;20034;-83
2023/01/21 09:36:57;;;;;;;0.20;0.20;;;;;;;1.24;72.35;103429.34;5014060;28;20483;-85
2023/01/21 09:39:23;;;;;;;0.20;0.20;;;;;;;1.26;72.62;103425.13;5008377;28;20036;-85
2023/01/21 09:41:52;;;;;;;0.73;0.73;;;;;;;1.25;72.57;103423.31;5011820;28;20033;-84
2023/01/21 09:44:43;;;;;;;0.20;0.20;;;;;;;1.32;72.06;103424.59;5021909;28;20281;-84
2023/01/21 09:47:32;;;;;;;0.20;0.20;;;;;;;1.34;71.97;103424.69;5019632;28;20034;-86
2023/01/21 09:50:06;;;;;;;0.10;0.10;;;;;;;1.33;72.23;103430.72;5028496;28;20018;-87
2023/01/21 09:52:42;;;;;;;1.85;1.75;;;;;;;1.40;72.21;103428.53;5024723;28;20108;-85
2023/01/21 09:55:18;;;;;;;0.13;0.13;;;;;;;1.47;72.26;103449.81;5021968;28;20025;-85
2023/01/21 09:58:02;;;;;;;3.30;1.45;;;;;;;1.54;72.73;103460.72;5018942;28;20431;-84
2023/01/21 10:08:53;;;;;;;0.30;0.30;;;;;;;1.62;72.14;103466.41;5073226;28;20398;-80
2023/01/21 10:14:44;;;;;;;0.20;0.20;;;;;;;1.58;71.72;103470.56;5121006;27;20137;-82
2023/01/21 10:17:39;;;;;;;0.57;0.57;;;;;;;1.68;72.01;103466.75;5112382;28;20045;-81
2023/01/21 10:20:18;;;;;;;0.20;0.20;;;;;;;1.67;71.78;103461.44;5109160;28;20032;-81
2023/01/21 10:22:58;;;;;;;0.30;0.30;;;;;;;1.74;72.10;103474.06;5112086;28;20027;-79
2023/01/21 10:25:29;;;;;;;0.22;0.22;;;;;;;1.70;71.86;103466.88;5109828;28;20028;-81
2023/01/21 10:28:01;;;;;;;0.30;0.30;;;;;;;1.74;72.24;103461.00;5112532;28;20032;-81
2023/01/21 10:30:36;;;;;;;0.20;0.20;;;;;;;1.81;72.40;103457.00;5110027;28;20016;-82
2023/01/21 10:33:06;;;;;;;5.05;1.00;;;;;;;1.81;72.04;103457.00;5113663;28;20038;-82
2023/01/21 10:38:56;;;;;;;1.02;1.02;;;;;;;1.96;72.30;103473.63;5078175;27;20413;-79
2023/01/21 10:47:34;;;;;;;0.10;0.10;;;;;;;2.16;72.60;103469.53;5056010;28;20404;-80
2023/01/21 10:50:24;;;;;;;0.10;0.10;;;;;;;2.19;72.59;103468.78;5063546;28;20081;-80
2023/01/21 10:53:03;;;;;;;0.10;0.10;;;;;;;2.26;72.61;103469.22;5067714;28;20060;-80
2023/01/21 10:55:56;;;;;;;0.60;0.60;;;;;;;2.30;72.64;103472.91;5056738;28;20028;-81
2023/01/21 11:01:09;;;;;;;0.55;0.43;;;;;;;2.36;72.44;103456.69;5086628;27;20400;-81
2023/01/21 11:03:42;;;;;;;2.25;2.13;;;;;;;2.38;72.48;103453.34;5078385;28;21138;-82
2023/01/21 11:06:12;;;;;;;1.27;0.88;;;;;;;2.41;72.17;103463.06;5073526;28;20029;-82
2023/01/21 11:08:40;;;;;;;0.10;0.10;;;;;;;2.42;72.03;103464.88;5070793;28;20380;-82
2023/01/21 11:11:07;;;;;;;0.40;0.40;;;;;;;2.47;72.41;103473.88;5070736;28;20025;-82
2023/01/21 11:13:33;;;;;;;0.17;0.17;;;;;;;2.48;72.37;103472.16;5075759;28;20620;-82
2023/01/21 11:16:00;;;;;;;0.10;0.10;;;;;;;2.49;72.06;103472.22;5064288;28;20089;-83
2023/01/21 11:18:41;;;;;;;0.10;0.10;;;;;;;2.59;72.19;103468.41;5068950;28;20090;-83
2023/01/21 11:21:24;;;;;;;0.47;0.47;;;;;;;2.62;72.30;103473.84;5060275;28;20127;-83
2023/01/21 11:23:51;;;;;;;;;;;;;;;2.73;72.04;103484.91;5062487;28;20040;-83
2023/01/21 11:26:23;;;;;;;0.10;0.10;;;;;;;2.61;71.63;103485.13;5068781;28;20289;-83
2023/01/21 11:29:21;;;;;;;1.20;1.20;;;;;;;2.68;71.52;103488.97;5067076;28;20055;-83
2023/01/21 11:31:51;;;;;;;0.10;0.10;;;;;;;2.64;72.00;103476.53;5067614;28;20123;-83
2023/01/21 11:34:20;;;;;;;0.10;0.10;;;;;;;2.66;71.97;103474.91;5069878;28;20025;-83
2023/01/21 11:37:07;;;;;;;0.60;0.60;;;;;;;2.75;71.81;103475.41;5066349;28;20024;-83
2023/01/21 11:39:37;;;;;;;0.10;0.10;;;;;;;2.70;71.66;103476.88;5065945;28;20067;-83
2023/01/21 11:42:12;;;;;;;2.13;2.03;;;;;;;2.75;72.07;103478.00;5065651;28;20490;-82
2023/01/21 11:45:00;;;;;;;0.20;0.20;;;;;;;2.85;72.08;103475.06;5069071;28;20040;-83
2023/01/21 11:47:34;;;;;;;0.20;0.20;;;;;;;2.77;71.41;103473.78;5070755;28;20025;-84
2023/01/21 11:50:09;;;;;;;0.10;0.10;;;;;;;2.81;71.96;103475.72;5069069;28;20032;-82
2023/01/21 11:52:35;;;;;;;0.10;0.10;;;;;;;2.84;71.80;103481.16;5062672;28;20051;-84
2023/01/21 11:55:03;;;;;;;0.17;0.17;;;;;;;2.96;72.37;103485.25;5059717;28;20060;-84
2023/01/21 11:57:31;;;;;;;0.10;0.10;;;;;;;2.98;71.79;103483.59;5069641;28;20540;-83
2023/01/21 12:00:06;;;;;;;0.63;0.63;;;;;;;2.99;72.02;103474.94;5064021;28;20033;-83
2023/01/21 12:02:38;;;;;;;0.28;0.28;;;;;;;2.91;70.70;103477.13;5069767;28;20532;-83
2023/01/21 12:05:26;;;;;;;0.20;0.20;;;;;;;2.90;70.78;103475.31;5068694;28;20028;-83
2023/01/21 12:07:53;;;;;;;0.63;0.63;;;;;;;2.92;71.01;103469.34;5059923;28;20032;-83
2023/01/21 12:13:22;;;;;;;0.10;0.10;;;;;;;3.08;71.08;103464.97;5074792;27;20421;-83
2023/01/21 12:18:52;;;;;;;0.63;0.63;;;;;;;3.18;70.54;103462.00;5138769;27;20415;-82
2023/01/21 12:21:45;;;;;;;1.48;0.85;;;;;;;3.24;70.66;103467.56;5098326;28;20498;-83
2023/01/21 12:24:21;;;;;;;;;;;;;;;3.30;70.55;103466.06;5087426;28;20049;-84
2023/01/21 12:26:59;;;;;;;0.20;0.20;;;;;;;3.21;70.46;103462.13;5096428;28;19913;-83
2023/01/21 12:29:39;;;;;;;0.20;0.20;;;;;;;3.22;70.86;103460.44;5096041;28;20042;-83
2023/01/21 12:34:59;;;;;;;0.22;0.22;;;;;;;3.30;71.10;103452.97;5080352;28;20406;-85
2023/01/21 12:37:48;;;;;;;0.25;0.25;;;;;;;3.37;70.71;103448.13;5077114;28;20092;-85
2023/01/21 12:40:26;;;;;;;0.30;0.30;;;;;;;3.31;70.14;103452.16;5051325;28;20057;-84